sensor_id;sensor_type;location;lat;lon;timestamp;pressure;altitude;pressure_sealevel;temperature;humidity
5755;BME280;2902;42.130;24.732;2023-05-06T00:01:54;99550.97;;;16.97;73.56
5755;BME280;2902;42.130;24.732;2023-05-06T00:04:21;99543.75;;;16.97;73.46
5755;BME280;2902;42.130;24.732;2023-05-06T00:06:50;99546.78;;;17.01;73.00
5755;BME280;2902;42.130;24.732;2023-05-06T00:09:17;99546.31;;;17.04;73.43
5755;BME280;2902;42.130;24.732;2023-05-06T00:11:43;99550.38;;;17.06;73.57
5755;BME280;2902;42.130;24.732;2023-05-06T00:14:11;99543.94;;;17.07;73.09
5755;BME280;2902;42.130;24.732;2023-05-06T00:16:38;99547.25;;;17.09;73.52
5755;BME280;2902;42.130;24.732;2023-05-06T00:19:05;99547.47;;;17.08;73.67
5755;BME280;2902;42.130;24.732;2023-05-06T00:21:32;99540.84;;;16.99;73.91
5755;BME280;2902;42.130;24.732;2023-05-06T00:24:00;99544.09;;;17.01;74.02
5755;BME280;2902;42.130;24.732;2023-05-06T00:26:26;99541.06;;;16.97;73.77
5755;BME280;2902;42.130;24.732;2023-05-06T00:28:53;99543.88;;;16.91;74.08
5755;BME280;2902;42.130;24.732;2023-05-06T00:31:20;99538.88;;;16.83;74.07
5755;BME280;2902;42.130;24.732;2023-05-06T00:33:47;99531.63;;;16.72;74.48
5755;BME280;2902;42.130;24.732;2023-05-06T00:36:13;99540.97;;;16.69;74.81
5755;BME280;2902;42.130;24.732;2023-05-06T00:38:40;99545.16;;;16.65;75.08
5755;BME280;2902;42.130;24.732;2023-05-06T00:41:08;99539.00;;;16.65;74.95
5755;BME280;2902;42.130;24.732;2023-05-06T00:43:35;99539.00;;;16.65;74.87
5755;BME280;2902;42.130;24.732;2023-05-06T00:46:01;99548.09;;;16.64;74.96
5755;BME280;2902;42.130;24.732;2023-05-06T00:48:28;99540.28;;;16.62;75.25
5755;BME280;2902;42.130;24.732;2023-05-06T00:50:55;99543.22;;;16.61;75.34
5755;BME280;2902;42.130;24.732;2023-05-06T00:53:22;99541.56;;;16.60;75.43
5755;BME280;2902;42.130;24.732;2023-05-06T00:55:49;99546.81;;;16.55;75.69
5755;BME280;2902;42.130;24.732;2023-05-06T00:58:18;99549.94;;;16.52;76.00
5755;BME280;2902;42.130;24.732;2023-05-06T01:00:45;99544.25;;;16.48;75.89
5755;BME280;2902;42.130;24.732;2023-05-06T01:03:11;99547.97;;;16.47;76.21
5755;BME280;2902;42.130;24.732;2023-05-06T01:05:46;99539.41;;;16.39;76.39
5755;BME280;2902;42.130;24.732;2023-05-06T01:08:20;99536.16;;;16.37;76.38
5755;BME280;2902;42.130;24.732;2023-05-06T01:10:52;99542.66;;;16.29;76.90
5755;BME280;2902;42.130;24.732;2023-05-06T01:13:27;99533.47;;;16.25;77.05
5755;BME280;2902;42.130;24.732;2023-05-06T01:15:58;99541.84;;;16.17;77.28
5755;BME280;2902;42.130;24.732;2023-05-06T01:18:26;99531.44;;;16.09;77.07
5755;BME280;2902;42.130;24.732;2023-05-06T01:20:54;99537.41;;;16.11;77.24
5755;BME280;2902;42.130;24.732;2023-05-06T01:23:22;99538.25;;;16.12;76.87
5755;BME280;2902;42.130;24.732;2023-05-06T01:25:49;99525.97;;;16.04;77.21
5755;BME280;2902;42.130;24.732;2023-05-06T01:28:16;99533.44;;;16.02;77.07
5755;BME280;2902;42.130;24.732;2023-05-06T01:30:51;99529.53;;;15.86;76.81
5755;BME280;2902;42.130;24.732;2023-05-06T01:33:27;99536.13;;;15.72;76.63
5755;BME280;2902;42.130;24.732;2023-05-06T01:36:04;99529.19;;;15.53;76.58
5755;BME280;2902;42.130;24.732;2023-05-06T01:38:40;99535.91;;;15.44;77.02
5755;BME280;2902;42.130;24.732;2023-05-06T01:41:10;99526.13;;;15.38;76.94
5755;BME280;2902;42.130;24.732;2023-05-06T01:43:40;99532.66;;;15.42;76.73
5755;BME280;2902;42.130;24.732;2023-05-06T01:46:10;99528.78;;;15.38;77.21
5755;BME280;2902;42.130;24.732;2023-05-06T01:48:39;99525.06;;;15.21;77.22
5755;BME280;2902;42.130;24.732;2023-05-06T01:51:06;99519.41;;;15.11;77.36
5755;BME280;2902;42.130;24.732;2023-05-06T01:53:34;99516.97;;;15.10;77.58
5755;BME280;2902;42.130;24.732;2023-05-06T01:56:01;99512.00;;;14.95;78.08
5755;BME280;2902;42.130;24.732;2023-05-06T01:58:28;99517.94;;;14.97;78.52
5755;BME280;2902;42.130;24.732;2023-05-06T02:00:54;99509.09;;;14.97;78.36
5755;BME280;2902;42.130;24.732;2023-05-06T02:03:21;99513.25;;;14.93;78.57
5755;BME280;2902;42.130;24.732;2023-05-06T02:05:48;99519.13;;;14.83;79.02
5755;BME280;2902;42.130;24.732;2023-05-06T02:08:14;99515.44;;;14.84;80.29
5755;BME280;2902;42.130;24.732;2023-05-06T02:10:43;99518.03;;;14.91;79.88
5755;BME280;2902;42.130;24.732;2023-05-06T02:13:10;99522.47;;;14.97;80.74
5755;BME280;2902;42.130;24.732;2023-05-06T02:15:37;99518.66;;;15.04;80.41
5755;BME280;2902;42.130;24.732;2023-05-06T02:18:04;99511.56;;;14.98;80.11
5755;BME280;2902;42.130;24.732;2023-05-06T02:20:30;99518.09;;;15.02;79.67
5755;BME280;2902;42.130;24.732;2023-05-06T02:22:57;99517.44;;;15.07;79.92
5755;BME280;2902;42.130;24.732;2023-05-06T02:25:24;99518.31;;;15.01;79.73
5755;BME280;2902;42.130;24.732;2023-05-06T02:27:52;99509.09;;;14.97;80.49
5755;BME280;2902;42.130;24.732;2023-05-06T02:30:19;99507.03;;;14.99;80.68
5755;BME280;2902;42.130;24.732;2023-05-06T02:32:45;99510.41;;;15.06;80.05
5755;BME280;2902;42.130;24.732;2023-05-06T02:35:12;99513.09;;;15.06;79.96
5755;BME280;2902;42.130;24.732;2023-05-06T02:37:39;99518.38;;;15.12;79.79
5755;BME280;2902;42.130;24.732;2023-05-06T02:40:07;99517.47;;;15.18;79.18
5755;BME280;2902;42.130;24.732;2023-05-06T02:42:34;99518.22;;;15.07;78.67
5755;BME280;2902;42.130;24.732;2023-05-06T02:45:03;99525.16;;;15.15;79.42
5755;BME280;2902;42.130;24.732;2023-05-06T02:47:29;99512.72;;;15.20;79.03
5755;BME280;2902;42.130;24.732;2023-05-06T02:49:56;99521.03;;;15.12;78.62
5755;BME280;2902;42.130;24.732;2023-05-06T02:52:23;99518.66;;;15.04;79.11
5755;BME280;2902;42.130;24.732;2023-05-06T02:54:50;99509.63;;;15.05;79.07
5755;BME280;2902;42.130;24.732;2023-05-06T02:57:17;99516.25;;;15.03;79.28
5755;BME280;2902;42.130;24.732;2023-05-06T02:59:43;99519.22;;;14.95;79.48
5755;BME280;2902;42.130;24.732;2023-05-06T03:02:11;99520.22;;;14.94;79.97
5755;BME280;2902;42.130;24.732;2023-05-06T03:04:38;99518.38;;;14.94;79.71
5755;BME280;2902;42.130;24.732;2023-05-06T03:07:05;99509.31;;;14.95;79.30
5755;BME280;2902;42.130;24.732;2023-05-06T03:09:31;99515.06;;;14.99;79.99
5755;BME280;2902;42.130;24.732;2023-05-06T03:11:58;99518.22;;;15.07;79.52
5755;BME280;2902;42.130;24.732;2023-05-06T03:14:26;99504.44;;;14.92;79.60
5755;BME280;2902;42.130;24.732;2023-05-06T03:16:53;99519.13;;;15.01;80.21
5755;BME280;2902;42.130;24.732;2023-05-06T03:19:21;99517.94;;;14.97;80.57
5755;BME280;2902;42.130;24.732;2023-05-06T03:21:48;99514.50;;;15.08;80.29
5755;BME280;2902;42.130;24.732;2023-05-06T03:24:15;99521.78;;;15.19;79.57
5755;BME280;2902;42.130;24.732;2023-05-06T03:26:41;99521.34;;;15.22;79.28
5755;BME280;2902;42.130;24.732;2023-05-06T03:29:08;99526.41;;;15.12;79.23
5755;BME280;2902;42.130;24.732;2023-05-06T03:31:35;99520.47;;;14.92;80.06
5755;BME280;2902;42.130;24.732;2023-05-06T03:34:02;99530.28;;;14.98;80.05
5755;BME280;2902;42.130;24.732;2023-05-06T03:36:30;99536.81;;;15.02;79.79
5755;BME280;2902;42.130;24.732;2023-05-06T03:38:57;99545.88;;;15.01;79.71
5755;BME280;2902;42.130;24.732;2023-05-06T03:41:24;99547.34;;;15.15;80.07
5755;BME280;2902;42.130;24.732;2023-05-06T03:43:50;99551.44;;;15.18;79.35
5755;BME280;2902;42.130;24.732;2023-05-06T03:46:19;99552.28;;;15.18;79.35
5755;BME280;2902;42.130;24.732;2023-05-06T03:48:46;99553.72;;;15.32;79.19
5755;BME280;2902;42.130;24.732;2023-05-06T03:51:13;99552.78;;;15.45;78.70
5755;BME280;2902;42.130;24.732;2023-05-06T03:53:41;99552.25;;;15.54;77.74
5755;BME280;2902;42.130;24.732;2023-05-06T03:56:08;99567.38;;;16.20;75.69
5755;BME280;2902;42.130;24.732;2023-05-06T03:58:34;99574.31;;;16.85;72.92
5755;BME280;2902;42.130;24.732;2023-05-06T04:01:01;99586.03;;;17.30;69.55
5755;BME280;2902;42.130;24.732;2023-05-06T04:03:28;99575.84;;;17.55;67.82
5755;BME280;2902;42.130;24.732;2023-05-06T04:05:55;99595.06;;;17.75;67.53
5755;BME280;2902;42.130;24.732;2023-05-06T04:08:22;99594.44;;;17.84;66.29
5755;BME280;2902;42.130;24.732;2023-05-06T04:10:50;99598.50;;;17.87;66.52
5755;BME280;2902;42.130;24.732;2023-05-06T04:13:16;99601.66;;;18.12;64.73
5755;BME280;2902;42.130;24.732;2023-05-06T04:15:43;99602.25;;;18.42;64.33
5755;BME280;2902;42.130;24.732;2023-05-06T04:18:10;99609.56;;;18.96;62.02
5755;BME280;2902;42.130;24.732;2023-05-06T04:20:45;99608.06;;;19.05;61.15
5755;BME280;2902;42.130;24.732;2023-05-06T04:23:11;99609.38;;;19.02;61.46
5755;BME280;2902;42.130;24.732;2023-05-06T04:25:38;99597.38;;;19.48;59.12
5755;BME280;2902;42.130;24.732;2023-05-06T04:28:09;99609.50;;;19.72;58.90
5755;BME280;2902;42.130;24.732;2023-05-06T04:30:36;99614.63;;;19.95;58.06
5755;BME280;2902;42.130;24.732;2023-05-06T04:33:03;99615.53;;;20.05;56.78
5755;BME280;2902;42.130;24.732;2023-05-06T04:35:30;99617.25;;;20.70;55.05
5755;BME280;2902;42.130;24.732;2023-05-06T04:37:56;99615.41;;;20.75;54.42
5755;BME280;2902;42.130;24.732;2023-05-06T04:40:23;99608.13;;;21.12;54.26
5755;BME280;2902;42.130;24.732;2023-05-06T04:42:51;99600.44;;;21.46;52.13
5755;BME280;2902;42.130;24.732;2023-05-06T04:45:20;99617.44;;;22.03;50.38
5755;BME280;2902;42.130;24.732;2023-05-06T04:47:46;99618.59;;;22.27;50.00
5755;BME280;2902;42.130;24.732;2023-05-06T04:50:13;99608.09;;;22.60;47.94
5755;BME280;2902;42.130;24.732;2023-05-06T04:52:40;99619.41;;;23.07;47.11
5755;BME280;2902;42.130;24.732;2023-05-06T04:55:07;99617.25;;;23.29;46.63
5755;BME280;2902;42.130;24.732;2023-05-06T04:57:35;99615.03;;;23.41;45.97
5755;BME280;2902;42.130;24.732;2023-05-06T05:00:02;99613.44;;;23.30;47.38
5755;BME280;2902;42.130;24.732;2023-05-06T05:02:31;99608.03;;;23.25;50.08
5755;BME280;2902;42.130;24.732;2023-05-06T05:04:57;99616.09;;;23.40;47.39
5755;BME280;2902;42.130;24.732;2023-05-06T05:07:24;99623.53;;;23.83;45.99
5755;BME280;2902;42.130;24.732;2023-05-06T05:09:51;99619.78;;;24.28;45.62
5755;BME280;2902;42.130;24.732;2023-05-06T05:12:17;99621.75;;;24.56;43.52
5755;BME280;2902;42.130;24.732;2023-05-06T05:14:44;99619.69;;;23.94;44.16
5755;BME280;2902;42.130;24.732;2023-05-06T05:17:11;99615.06;;;23.31;45.59
5755;BME280;2902;42.130;24.732;2023-05-06T05:19:39;99618.06;;;23.05;46.74
5755;BME280;2902;42.130;24.732;2023-05-06T05:22:06;99620.78;;;23.05;47.09
5755;BME280;2902;42.130;24.732;2023-05-06T05:24:33;99610.19;;;23.08;47.63
5755;BME280;2902;42.130;24.732;2023-05-06T05:26:59;99609.66;;;23.11;48.11
5755;BME280;2902;42.130;24.732;2023-05-06T05:29:26;99607.53;;;22.78;49.38
5755;BME280;2902;42.130;24.732;2023-05-06T05:31:53;99619.41;;;23.17;46.39
5755;BME280;2902;42.130;24.732;2023-05-06T05:34:19;99622.19;;;23.81;44.86
5755;BME280;2902;42.130;24.732;2023-05-06T05:36:47;99630.03;;;24.74;43.44
5755;BME280;2902;42.130;24.732;2023-05-06T05:39:14;99626.34;;;25.70;42.28
5755;BME280;2902;42.130;24.732;2023-05-06T05:41:41;99631.00;;;26.67;40.32
5755;BME280;2902;42.130;24.732;2023-05-06T05:44:07;99628.75;;;27.33;36.74
5755;BME280;2902;42.130;24.732;2023-05-06T05:46:34;99614.63;;;27.12;36.87
5755;BME280;2902;42.130;24.732;2023-05-06T05:49:01;99615.38;;;27.04;37.05
5755;BME280;2902;42.130;24.732;2023-05-06T05:51:27;99617.38;;;27.12;37.34
5755;BME280;2902;42.130;24.732;2023-05-06T05:53:55;99623.25;;;26.74;37.05
5755;BME280;2902;42.130;24.732;2023-05-06T05:56:22;99616.16;;;26.04;38.45
5755;BME280;2902;42.130;24.732;2023-05-06T05:58:49;99612.44;;;26.32;38.23
5755;BME280;2902;42.130;24.732;2023-05-06T06:01:15;99615.66;;;26.71;39.37
5755;BME280;2902;42.130;24.732;2023-05-06T06:03:42;99609.78;;;27.41;37.17
5755;BME280;2902;42.130;24.732;2023-05-06T06:06:10;99612.94;;;28.11;35.89
5755;BME280;2902;42.130;24.732;2023-05-06T06:08:36;99620.81;;;28.26;33.82
5755;BME280;2902;42.130;24.732;2023-05-06T06:11:05;99611.34;;;28.32;34.58
5755;BME280;2902;42.130;24.732;2023-05-06T06:13:31;99619.56;;;28.98;33.30
5755;BME280;2902;42.130;24.732;2023-05-06T06:15:59;99625.84;;;28.46;33.30
5755;BME280;2902;42.130;24.732;2023-05-06T06:18:26;99624.53;;;27.94;34.46
5755;BME280;2902;42.130;24.732;2023-05-06T06:20:52;99611.72;;;28.17;34.63
5755;BME280;2902;42.130;24.732;2023-05-06T06:23:19;99612.91;;;28.24;34.77
5755;BME280;2902;42.130;24.732;2023-05-06T06:25:46;99616.25;;;28.57;34.68
5755;BME280;2902;42.130;24.732;2023-05-06T06:28:14;99613.25;;;28.45;34.64
5755;BME280;2902;42.130;24.732;2023-05-06T06:30:41;99611.44;;;28.40;34.46
5755;BME280;2902;42.130;24.732;2023-05-06T06:33:07;99611.22;;;28.50;33.37
5755;BME280;2902;42.130;24.732;2023-05-06T06:35:34;99620.06;;;27.58;34.89
5755;BME280;2902;42.130;24.732;2023-05-06T06:38:01;99609.16;;;27.31;35.32
5755;BME280;2902;42.130;24.732;2023-05-06T06:40:27;99606.28;;;26.45;36.76
5755;BME280;2902;42.130;24.732;2023-05-06T06:42:54;99604.16;;;26.23;37.82
5755;BME280;2902;42.130;24.732;2023-05-06T06:45:22;99607.53;;;26.15;38.11
5755;BME280;2902;42.130;24.732;2023-05-06T06:47:49;99598.28;;;25.93;38.42
5755;BME280;2902;42.130;24.732;2023-05-06T06:50:16;99605.84;;;26.19;37.84
5755;BME280;2902;42.130;24.732;2023-05-06T06:52:42;99606.78;;;25.68;38.79
5755;BME280;2902;42.130;24.732;2023-05-06T06:55:09;99600.16;;;26.16;40.78
5755;BME280;2902;42.130;24.732;2023-05-06T06:57:36;99602.81;;;26.90;39.37
5755;BME280;2902;42.130;24.732;2023-05-06T07:00:03;99615.72;;;27.30;36.80
5755;BME280;2902;42.130;24.732;2023-05-06T07:02:31;99612.38;;;27.73;35.24
5755;BME280;2902;42.130;24.732;2023-05-06T07:04:58;99606.13;;;27.73;35.78
5755;BME280;2902;42.130;24.732;2023-05-06T07:07:24;99610.72;;;28.13;35.17
5755;BME280;2902;42.130;24.732;2023-05-06T07:09:51;99614.69;;;28.29;34.66
5755;BME280;2902;42.130;24.732;2023-05-06T07:12:18;99611.59;;;28.22;34.27
5755;BME280;2902;42.130;24.732;2023-05-06T07:14:45;99610.53;;;27.96;34.84
5755;BME280;2902;42.130;24.732;2023-05-06T07:17:11;99599.13;;;27.67;35.18
5755;BME280;2902;42.130;24.732;2023-05-06T07:19:40;99602.41;;;27.10;36.48
5755;BME280;2902;42.130;24.732;2023-05-06T07:22:06;99596.44;;;26.94;35.97
5755;BME280;2902;42.130;24.732;2023-05-06T07:24:33;99599.78;;;26.41;36.91
5755;BME280;2902;42.130;24.732;2023-05-06T07:27:00;99594.44;;;26.68;36.98
5755;BME280;2902;42.130;24.732;2023-05-06T07:29:27;99607.28;;;27.13;35.41
5755;BME280;2902;42.130;24.732;2023-05-06T07:31:53;99604.44;;;26.22;34.95
5755;BME280;2902;42.130;24.732;2023-05-06T07:34:20;99593.50;;;26.91;38.49
5755;BME280;2902;42.130;24.732;2023-05-06T07:36:48;99592.78;;;27.58;35.22
5755;BME280;2902;42.130;24.732;2023-05-06T07:39:15;99605.13;;;27.55;33.21
5755;BME280;2902;42.130;24.732;2023-05-06T07:41:41;99601.59;;;27.82;34.78
5755;BME280;2902;42.130;24.732;2023-05-06T07:44:08;99599.63;;;27.96;33.33
5755;BME280;2902;42.130;24.732;2023-05-06T07:46:35;99601.97;;;28.24;32.83
5755;BME280;2902;42.130;24.732;2023-05-06T07:49:02;99606.63;;;28.24;33.28
5755;BME280;2902;42.130;24.732;2023-05-06T07:51:28;99610.31;;;28.19;31.77
5755;BME280;2902;42.130;24.732;2023-05-06T07:53:57;99610.03;;;28.43;33.70
5755;BME280;2902;42.130;24.732;2023-05-06T07:56:23;99614.38;;;28.44;33.26
5755;BME280;2902;42.130;24.732;2023-05-06T07:58:50;99616.38;;;28.74;34.19
5755;BME280;2902;42.130;24.732;2023-05-06T08:01:17;99617.00;;;28.71;31.18
5755;BME280;2902;42.130;24.732;2023-05-06T08:03:43;99617.50;;;28.95;31.92
5755;BME280;2902;42.130;24.732;2023-05-06T08:06:10;99609.47;;;29.29;30.70
5755;BME280;2902;42.130;24.732;2023-05-06T08:08:37;99613.44;;;29.54;30.05
5755;BME280;2902;42.130;24.732;2023-05-06T08:11:05;99617.88;;;29.80;30.30
5755;BME280;2902;42.130;24.732;2023-05-06T08:13:31;99615.28;;;29.67;30.11
5755;BME280;2902;42.130;24.732;2023-05-06T08:15:58;99613.78;;;28.91;29.63
5755;BME280;2902;42.130;24.732;2023-05-06T08:18:26;99602.97;;;28.64;32.37
5755;BME280;2902;42.130;24.732;2023-05-06T08:20:53;99618.28;;;28.95;30.78
5755;BME280;2902;42.130;24.732;2023-05-06T08:23:20;99609.59;;;28.93;30.79
5755;BME280;2902;42.130;24.732;2023-05-06T08:25:46;99615.09;;;29.24;30.43
5755;BME280;2902;42.130;24.732;2023-05-06T08:28:14;99595.50;;;29.39;29.57
5755;BME280;2902;42.130;24.732;2023-05-06T08:30:41;99618.38;;;29.43;29.08
5755;BME280;2902;42.130;24.732;2023-05-06T08:33:10;99616.41;;;29.35;30.08
5755;BME280;2902;42.130;24.732;2023-05-06T08:35:36;99609.00;;;29.66;29.90
5755;BME280;2902;42.130;24.732;2023-05-06T08:38:03;99604.00;;;29.68;31.12
5755;BME280;2902;42.130;24.732;2023-05-06T08:40:30;99601.50;;;29.50;30.35
5755;BME280;2902;42.130;24.732;2023-05-06T08:42:58;99599.66;;;29.59;29.74
5755;BME280;2902;42.130;24.732;2023-05-06T08:45:26;99613.75;;;29.13;30.13
5755;BME280;2902;42.130;24.732;2023-05-06T08:47:53;99607.69;;;29.24;30.10
5755;BME280;2902;42.130;24.732;2023-05-06T08:50:20;99603.41;;;29.10;28.88
5755;BME280;2902;42.130;24.732;2023-05-06T08:52:47;99610.94;;;29.35;29.50
5755;BME280;2902;42.130;24.732;2023-05-06T08:55:14;99619.81;;;29.71;28.23
5755;BME280;2902;42.130;24.732;2023-05-06T08:57:43;99609.88;;;30.09;27.73
5755;BME280;2902;42.130;24.732;2023-05-06T09:00:11;99599.78;;;30.18;28.26
5755;BME280;2902;42.130;24.732;2023-05-06T09:02:41;99598.16;;;30.43;27.32
5755;BME280;2902;42.130;24.732;2023-05-06T09:05:08;99602.16;;;30.62;27.44
5755;BME280;2902;42.130;24.732;2023-05-06T09:07:35;99599.09;;;30.89;27.20
5755;BME280;2902;42.130;24.732;2023-05-06T09:10:04;99601.19;;;30.67;26.75
5755;BME280;2902;42.130;24.732;2023-05-06T09:12:35;99597.03;;;30.35;27.10
5755;BME280;2902;42.130;24.732;2023-05-06T09:15:02;99601.13;;;29.73;28.27
5755;BME280;2902;42.130;24.732;2023-05-06T09:17:29;99601.84;;;29.57;28.34
5755;BME280;2902;42.130;24.732;2023-05-06T09:19:58;99607.28;;;29.48;28.41
5755;BME280;2902;42.130;24.732;2023-05-06T09:22:26;99601.41;;;29.63;28.68
5755;BME280;2902;42.130;24.732;2023-05-06T09:24:53;99587.56;;;29.68;27.74
5755;BME280;2902;42.130;24.732;2023-05-06T09:27:22;99595.16;;;29.71;28.17
5755;BME280;2902;42.130;24.732;2023-05-06T09:30:00;99585.72;;;29.55;28.26
5755;BME280;2902;42.130;24.732;2023-05-06T09:32:27;99584.22;;;29.32;28.42
5755;BME280;2902;42.130;24.732;2023-05-06T09:34:54;99597.94;;;29.10;28.47
5755;BME280;2902;42.130;24.732;2023-05-06T09:37:23;99579.31;;;29.12;28.99
5755;BME280;2902;42.130;24.732;2023-05-06T09:39:53;99587.94;;;29.36;28.52
5755;BME280;2902;42.130;24.732;2023-05-06T09:42:21;99577.31;;;29.35;27.45
5755;BME280;2902;42.130;24.732;2023-05-06T09:44:48;99572.28;;;29.28;27.88
5755;BME280;2902;42.130;24.732;2023-05-06T09:47:16;99583.50;;;29.18;28.94
5755;BME280;2902;42.130;24.732;2023-05-06T09:49:43;99572.84;;;29.08;28.59
5755;BME280;2902;42.130;24.732;2023-05-06T09:52:10;99574.34;;;28.92;28.50
5755;BME280;2902;42.130;24.732;2023-05-06T09:54:39;99574.59;;;29.04;28.57
5755;BME280;2902;42.130;24.732;2023-05-06T09:57:06;99565.81;;;28.63;28.91
5755;BME280;2902;42.130;24.732;2023-05-06T09:59:33;99560.22;;;28.46;29.32
5755;BME280;2902;42.130;24.732;2023-05-06T10:02:01;99564.16;;;28.18;30.09
5755;BME280;2902;42.130;24.732;2023-05-06T10:04:32;99549.84;;;28.21;29.98
5755;BME280;2902;42.130;24.732;2023-05-06T10:07:02;99557.59;;;28.41;29.58
5755;BME280;2902;42.130;24.732;2023-05-06T10:09:28;99556.56;;;28.37;29.42
5755;BME280;2902;42.130;24.732;2023-05-06T10:11:57;99562.16;;;28.32;29.58
5755;BME280;2902;42.130;24.732;2023-05-06T10:14:25;99558.44;;;28.28;29.82
5755;BME280;2902;42.130;24.732;2023-05-06T10:16:51;99554.59;;;28.29;29.44
5755;BME280;2902;42.130;24.732;2023-05-06T10:19:22;99552.19;;;28.27;29.26
5755;BME280;2902;42.130;24.732;2023-05-06T10:21:53;99550.97;;;28.20;29.81
5755;BME280;2902;42.130;24.732;2023-05-06T10:24:24;99546.94;;;28.17;30.14
5755;BME280;2902;42.130;24.732;2023-05-06T10:26:54;99549.84;;;28.21;29.61
5755;BME280;2902;42.130;24.732;2023-05-06T10:29:24;99543.22;;;28.13;29.66
5755;BME280;2902;42.130;24.732;2023-05-06T10:31:53;99549.19;;;28.15;30.09
5755;BME280;2902;42.130;24.732;2023-05-06T10:34:21;99549.28;;;27.75;30.56
5755;BME280;2902;42.130;24.732;2023-05-06T10:36:50;99547.09;;;27.50;30.55
5755;BME280;2902;42.130;24.732;2023-05-06T10:39:20;99530.59;;;27.55;30.65
5755;BME280;2902;42.130;24.732;2023-05-06T10:41:47;99542.19;;;27.74;30.80
5755;BME280;2902;42.130;24.732;2023-05-06T10:44:14;99534.63;;;27.57;30.92
5755;BME280;2902;42.130;24.732;2023-05-06T10:46:59;99544.03;;;27.65;30.17
5755;BME280;2902;42.130;24.732;2023-05-06T10:49:26;99541.09;;;27.88;29.82
5755;BME280;2902;42.130;24.732;2023-05-06T10:52:09;99551.09;;;27.93;30.07
5755;BME280;2902;42.130;24.732;2023-05-06T10:54:46;99554.13;;;27.78;29.98
5755;BME280;2902;42.130;24.732;2023-05-06T10:57:14;99550.13;;;27.48;30.37
5755;BME280;2902;42.130;24.732;2023-05-06T10:59:44;99553.56;;;27.40;30.63
5755;BME280;2902;42.130;24.732;2023-05-06T11:02:13;99547.41;;;27.35;31.39
5755;BME280;2902;42.130;24.732;2023-05-06T11:04:49;99554.25;;;27.19;31.61
5755;BME280;2902;42.130;24.732;2023-05-06T11:07:21;99552.94;;;27.03;31.94
5755;BME280;2902;42.130;24.732;2023-05-06T11:09:55;99553.31;;;26.83;31.94
5755;BME280;2902;42.130;24.732;2023-05-06T11:12:43;99562.56;;;26.68;32.29
5755;BME280;2902;42.130;24.732;2023-05-06T11:15:37;99564.88;;;26.43;32.57
5755;BME280;2902;42.130;24.732;2023-05-06T11:21:39;99556.00;;;26.00;34.22
5755;BME280;2902;42.130;24.732;2023-05-06T11:24:07;99519.09;;;25.71;34.02
5755;BME280;2902;42.130;24.732;2023-05-06T11:26:34;99549.88;;;25.90;34.27
5755;BME280;2902;42.130;24.732;2023-05-06T11:29:01;99560.84;;;25.85;34.31
5755;BME280;2902;42.130;24.732;2023-05-06T11:31:29;99538.78;;;25.86;33.86
5755;BME280;2902;42.130;24.732;2023-05-06T11:34:05;99554.97;;;25.96;34.09
5755;BME280;2902;42.130;24.732;2023-05-06T11:36:33;99553.00;;;26.02;33.63
5755;BME280;2902;42.130;24.732;2023-05-06T11:39:04;99553.84;;;26.16;33.40
5755;BME280;2902;42.130;24.732;2023-05-06T11:41:32;99554.69;;;26.16;33.49
5755;BME280;2902;42.130;24.732;2023-05-06T11:43:59;99538.97;;;26.27;33.52
5755;BME280;2902;42.130;24.732;2023-05-06T11:46:30;99540.34;;;26.43;32.99
5755;BME280;2902;42.130;24.732;2023-05-06T11:48:58;99546.63;;;26.57;32.96
5755;BME280;2902;42.130;24.732;2023-05-06T11:51:25;99546.97;;;26.55;32.73
5755;BME280;2902;42.130;24.732;2023-05-06T11:54:02;99544.91;;;26.66;32.63
5755;BME280;2902;42.130;24.732;2023-05-06T11:56:44;99551.28;;;26.75;32.13
5755;BME280;2902;42.130;24.732;2023-05-06T11:59:11;99555.91;;;26.74;32.26
5755;BME280;2902;42.130;24.732;2023-05-06T12:01:40;99544.53;;;26.54;32.29
5755;BME280;2902;42.130;24.732;2023-05-06T12:04:07;99551.28;;;26.75;31.76
5755;BME280;2902;42.130;24.732;2023-05-06T12:06:35;99548.66;;;26.83;31.97
5755;BME280;2902;42.130;24.732;2023-05-06T12:09:02;99550.47;;;26.88;31.79
5755;BME280;2902;42.130;24.732;2023-05-06T12:11:31;99545.75;;;26.93;32.10
5755;BME280;2902;42.130;24.732;2023-05-06T12:13:58;99544.81;;;26.98;31.31
5755;BME280;2902;42.130;24.732;2023-05-06T12:16:26;99549.28;;;26.80;32.72
5755;BME280;2902;42.130;24.732;2023-05-06T12:18:53;99538.44;;;26.75;33.00
5755;BME280;2902;42.130;24.732;2023-05-06T12:21:21;99540.84;;;26.63;32.65
5755;BME280;2902;42.130;24.732;2023-05-06T12:23:52;99546.06;;;26.60;33.37
5755;BME280;2902;42.130;24.732;2023-05-06T12:26:19;99544.97;;;26.61;33.25
5755;BME280;2902;42.130;24.732;2023-05-06T12:29:03;99545.50;;;26.63;33.62
5755;BME280;2902;42.130;24.732;2023-05-06T12:31:30;99538.91;;;26.64;34.23
5755;BME280;2902;42.130;24.732;2023-05-06T12:33:56;99548.22;;;26.63;34.54
5755;BME280;2902;42.130;24.732;2023-05-06T12:36:23;99541.75;;;26.59;34.08
5755;BME280;2902;42.130;24.732;2023-05-06T12:38:51;99538.56;;;26.52;33.81
5755;BME280;2902;42.130;24.732;2023-05-06T12:41:18;99540.16;;;26.53;33.90
5755;BME280;2902;42.130;24.732;2023-05-06T12:43:45;99533.63;;;26.54;34.15
5755;BME280;2902;42.130;24.732;2023-05-06T12:46:15;99532.97;;;26.62;33.89
5755;BME280;2902;42.130;24.732;2023-05-06T12:48:55;99536.44;;;26.67;33.24
5755;BME280;2902;42.130;24.732;2023-05-06T12:51:22;99527.22;;;26.77;34.61
5755;BME280;2902;42.130;24.732;2023-05-06T12:53:49;99532.34;;;26.33;34.13
5755;BME280;2902;42.130;24.732;2023-05-06T12:56:15;99535.94;;;26.47;35.38
5755;BME280;2902;42.130;24.732;2023-05-06T12:58:42;99532.09;;;26.48;34.22
5755;BME280;2902;42.130;24.732;2023-05-06T13:01:09;99523.16;;;26.61;35.44
5755;BME280;2902;42.130;24.732;2023-05-06T13:03:38;99523.41;;;26.78;36.25
5755;BME280;2902;42.130;24.732;2023-05-06T13:06:05;99527.16;;;26.82;33.25
5755;BME280;2902;42.130;24.732;2023-05-06T13:08:32;99527.22;;;26.63;33.63
5755;BME280;2902;42.130;24.732;2023-05-06T13:10:59;99521.97;;;26.67;33.86
5755;BME280;2902;42.130;24.732;2023-05-06T13:13:26;99515.63;;;26.53;33.78
5755;BME280;2902;42.130;24.732;2023-05-06T13:15:53;99521.38;;;26.70;36.17
5755;BME280;2902;42.130;24.732;2023-05-06T13:18:20;99514.63;;;26.81;33.48